Terminal Aerodrome Forecast
Issued by NWS Omaha/Valley, NE

Home | Current Version | Previous Version | Text Only | Print | Product List | Glossary Off
Versions: 1 2 3 4 5 6 7 8 9 10 11 12 13 14 15

000
FTUS43 KOAX 022328
TAFOFK
TAF
KOFK 022328Z 0300/0324 VRB03KT P6SM SCT070 BKN250
     FM031500 27008KT P6SM FEW035
     FM031900 29012KT P6SM SCT045=

USA.gov is the U.S. government's official web portal to all federal, state and local government web resources and services.